createdAt,value
2023-07-12T00:02:24.813Z,40.22
2023-07-12T00:04:51.302Z,40.35
2023-07-12T00:07:17.675Z,39.99
2023-07-12T00:09:44.074Z,40.37
2023-07-12T00:12:10.497Z,40.19
2023-07-12T00:14:36.883Z,39.52
2023-07-12T00:17:03.315Z,39.80
2023-07-12T00:19:29.724Z,39.99
2023-07-12T00:21:56.121Z,39.26
2023-07-12T00:24:22.528Z,39.52
2023-07-12T00:26:48.913Z,40.04
2023-07-12T00:29:15.311Z,39.35
2023-07-12T00:31:41.716Z,40.27
2023-07-12T00:34:08.163Z,40.04
2023-07-12T00:36:34.614Z,39.99
2023-07-12T00:39:01.034Z,40.14
2023-07-12T00:41:27.422Z,40.58
2023-07-12T00:43:53.769Z,40.37
2023-07-12T00:46:20.240Z,40.69
2023-07-12T00:48:46.926Z,40.78
2023-07-12T00:51:13.319Z,40.73
2023-07-12T00:53:39.833Z,40.89
2023-07-12T00:56:06.206Z,40.86
2023-07-12T00:58:32.565Z,41.03
2023-07-12T01:00:58.945Z,40.72
2023-07-12T01:03:25.388Z,40.23
2023-07-12T01:05:51.818Z,40.52
2023-07-12T01:08:18.236Z,40.68
2023-07-12T01:10:44.697Z,40.73
2023-07-12T01:13:11.081Z,40.92
2023-07-12T01:15:37.492Z,40.61
2023-07-12T01:18:03.965Z,40.65
2023-07-12T01:20:30.376Z,40.46
2023-07-12T01:22:56.772Z,40.54
2023-07-12T01:25:23.183Z,40.27
2023-07-12T01:27:49.574Z,40.32
2023-07-12T01:30:15.944Z,40.09
2023-07-12T01:32:42.446Z,40.40
2023-07-12T01:35:08.866Z,40.03
2023-07-12T01:37:35.280Z,40.39
2023-07-12T01:40:01.722Z,40.33
2023-07-12T01:42:28.115Z,40.20
2023-07-12T01:44:54.502Z,39.70
2023-07-12T01:47:20.859Z,39.39
2023-07-12T01:49:47.216Z,39.59
2023-07-12T01:52:13.567Z,39.18
2023-07-12T01:54:39.967Z,39.38
2023-07-12T01:57:06.333Z,38.94
2023-07-12T01:59:34.283Z,39.28
2023-07-12T02:02:00.757Z,39.11
2023-07-12T02:04:27.215Z,39.60
2023-07-12T02:06:53.629Z,39.27
2023-07-12T02:09:20.030Z,38.97
2023-07-12T02:11:46.437Z,39.25
2023-07-12T02:14:12.858Z,39.45
2023-07-12T02:16:39.272Z,38.49
2023-07-12T02:19:05.670Z,38.89
2023-07-12T02:21:32.055Z,39.22
2023-07-12T02:23:58.447Z,38.99
2023-07-12T02:26:24.841Z,39.44
2023-07-12T02:28:51.256Z,38.54
2023-07-12T02:31:17.788Z,38.43
2023-07-12T02:33:44.173Z,38.95
2023-07-12T02:36:10.539Z,38.92
2023-07-12T02:38:36.937Z,38.32
2023-07-12T02:41:03.341Z,38.82
2023-07-12T02:43:29.735Z,38.49
2023-07-12T02:45:56.100Z,39.17
2023-07-12T02:48:22.514Z,38.57
2023-07-12T02:50:48.892Z,38.81
2023-07-12T02:53:15.289Z,39.26
2023-07-12T02:55:41.704Z,38.64
2023-07-12T02:58:08.139Z,39.01
2023-07-12T03:00:34.510Z,38.98
2023-07-12T03:03:00.885Z,38.75
2023-07-12T03:05:27.309Z,38.16
2023-07-12T03:07:53.686Z,38.98
2023-07-12T03:10:20.087Z,38.66
2023-07-12T03:12:46.490Z,38.40
2023-07-12T03:15:12.872Z,39.13
2023-07-12T03:17:39.316Z,38.63
2023-07-12T03:20:05.719Z,38.84
2023-07-12T03:22:32.180Z,38.76
2023-07-12T03:24:58.585Z,39.04
2023-07-12T03:27:25.012Z,38.46
2023-07-12T03:29:51.391Z,38.46
2023-07-12T03:32:17.747Z,38.66
2023-07-12T03:34:44.231Z,38.41
2023-07-12T03:37:10.594Z,38.19
2023-07-12T03:39:36.953Z,38.39
2023-07-12T03:42:03.340Z,38.13
2023-07-12T03:44:29.770Z,37.85
2023-07-12T03:46:56.182Z,38.47
2023-07-12T03:49:22.553Z,37.65
2023-07-12T03:51:48.946Z,37.36
2023-07-12T03:54:15.354Z,37.25
2023-07-12T03:56:41.732Z,37.38
2023-07-12T03:59:08.094Z,37.57
2023-07-12T04:01:34.580Z,37.48
2023-07-12T04:04:01.101Z,37.87
2023-07-12T04:06:27.566Z,37.89
2023-07-12T04:08:53.924Z,37.87
2023-07-12T04:11:20.303Z,37.40
2023-07-12T04:13:46.784Z,36.92
2023-07-12T04:16:13.213Z,36.91
2023-07-12T04:18:39.672Z,36.86
2023-07-12T04:21:06.337Z,36.89
2023-07-12T04:23:32.840Z,37.26
2023-07-12T04:25:59.259Z,37.07
2023-07-12T04:28:25.670Z,36.88
2023-07-12T04:30:52.082Z,37.12
2023-07-12T04:33:18.475Z,37.68
2023-07-12T04:35:44.889Z,37.14
2023-07-12T04:38:11.303Z,37.06
2023-07-12T04:40:37.669Z,37.64
2023-07-12T04:43:04.109Z,37.13
2023-07-12T04:45:30.542Z,37.19
2023-07-12T04:47:56.988Z,37.22
2023-07-12T04:50:23.390Z,37.03
2023-07-12T04:52:49.884Z,36.51
2023-07-12T04:55:16.269Z,36.94
2023-07-12T04:57:42.611Z,37.14
2023-07-12T05:00:08.989Z,36.66
2023-07-12T05:02:35.382Z,36.98
2023-07-12T05:05:01.811Z,36.76
2023-07-12T05:07:28.229Z,36.22
2023-07-12T05:09:54.734Z,36.54
2023-07-12T05:12:21.088Z,36.78
2023-07-12T05:14:47.469Z,36.33
2023-07-12T05:17:13.846Z,37.01
2023-07-12T05:19:40.236Z,36.82
2023-07-12T05:22:06.655Z,36.17
2023-07-12T05:24:33.025Z,36.60
2023-07-12T05:26:59.469Z,36.16
2023-07-12T05:29:25.876Z,36.65
2023-07-12T05:31:52.325Z,36.10
2023-07-12T05:34:18.759Z,36.30
2023-07-12T05:36:45.159Z,35.97
2023-07-12T05:39:11.508Z,36.50
2023-07-12T05:41:37.890Z,36.14
2023-07-12T05:44:04.268Z,36.46
2023-07-12T05:46:30.702Z,35.64
2023-07-12T05:48:57.112Z,35.69
2023-07-12T05:51:23.505Z,36.56
2023-07-12T05:53:50.038Z,36.26
2023-07-12T05:56:16.465Z,35.95
2023-07-12T05:58:42.859Z,35.60
2023-07-12T06:01:09.500Z,35.89
2023-07-12T06:03:36.063Z,36.21
2023-07-12T06:06:02.540Z,36.11
2023-07-12T06:08:28.958Z,35.85
2023-07-12T06:10:55.356Z,35.51
2023-07-12T06:13:21.726Z,36.00
2023-07-12T06:15:48.090Z,35.63
2023-07-12T06:18:14.603Z,36.12
2023-07-12T06:20:41.173Z,35.77
2023-07-12T06:23:07.572Z,36.13
2023-07-12T06:25:33.961Z,35.99
2023-07-12T06:28:00.356Z,36.21
2023-07-12T06:30:26.932Z,36.76
2023-07-12T06:32:53.315Z,36.43
2023-07-12T06:35:19.738Z,36.89
2023-07-12T06:37:46.125Z,37.05
2023-07-12T06:40:12.562Z,37.34
2023-07-12T06:42:39.036Z,37.33
2023-07-12T06:45:05.404Z,37.39
2023-07-12T06:47:31.866Z,37.13
2023-07-12T06:49:58.245Z,37.02
2023-07-12T06:52:24.614Z,36.75
2023-07-12T06:54:51.023Z,36.45
2023-07-12T06:57:17.397Z,36.30
2023-07-12T06:59:43.808Z,36.72
2023-07-12T07:02:10.221Z,37.13
2023-07-12T07:04:36.777Z,36.76
2023-07-12T07:07:03.164Z,36.32
2023-07-12T07:09:29.566Z,36.06
2023-07-12T07:11:55.923Z,36.16
2023-07-12T07:14:22.275Z,36.55
2023-07-12T07:16:48.651Z,36.04
2023-07-12T07:19:15.216Z,36.64
2023-07-12T07:21:41.655Z,35.81
2023-07-12T07:24:08.016Z,35.53
2023-07-12T07:26:34.419Z,35.24
2023-07-12T07:29:00.826Z,35.10
2023-07-12T07:31:27.261Z,35.47
2023-07-12T07:33:53.672Z,35.45
2023-07-12T07:36:20.075Z,35.63
2023-07-12T07:38:46.444Z,35.75
2023-07-12T07:41:12.826Z,35.62
2023-07-12T07:43:39.252Z,35.37
2023-07-12T07:46:05.668Z,35.18
2023-07-12T07:48:32.189Z,34.82
2023-07-12T07:50:58.574Z,35.07
2023-07-12T07:53:24.943Z,34.92
2023-07-12T07:55:51.405Z,35.15
2023-07-12T07:58:17.774Z,34.62
2023-07-12T08:00:46.465Z,34.04
2023-07-12T08:03:14.508Z,33.12
2023-07-12T08:05:41.035Z,32.93
2023-07-12T08:08:07.530Z,33.01
2023-07-12T08:10:34.210Z,32.65
2023-07-12T08:13:00.605Z,32.58
2023-07-12T08:15:27.024Z,32.45
2023-07-12T08:17:53.612Z,32.91
2023-07-12T08:20:20.126Z,33.21
2023-07-12T08:22:46.569Z,32.29
2023-07-12T08:25:12.984Z,33.29
2023-07-12T08:27:39.335Z,32.70
2023-07-12T08:30:05.691Z,32.16
2023-07-12T08:32:32.147Z,32.52
2023-07-12T08:34:58.562Z,31.86
2023-07-12T08:37:24.951Z,32.72
2023-07-12T08:39:51.350Z,32.88
2023-07-12T08:42:17.773Z,32.92
2023-07-12T08:44:44.134Z,33.31
2023-07-12T08:47:10.499Z,33.41
2023-07-12T08:49:36.886Z,33.43
2023-07-12T08:52:03.305Z,34.62
2023-07-12T08:54:29.719Z,34.20
2023-07-12T08:56:56.085Z,33.16
2023-07-12T08:59:22.459Z,33.17
2023-07-12T09:01:49.059Z,33.33
2023-07-12T09:04:15.490Z,32.64
2023-07-12T09:06:41.925Z,32.82
2023-07-12T09:09:09.103Z,33.25
2023-07-12T09:11:35.540Z,34.22
2023-07-12T09:14:01.984Z,33.82
2023-07-12T09:16:28.432Z,33.08
2023-07-12T09:18:54.875Z,33.17
2023-07-12T09:21:21.247Z,32.17
2023-07-12T09:23:47.622Z,32.69
2023-07-12T09:26:14.038Z,32.60
2023-07-12T09:28:40.397Z,33.55
2023-07-12T09:31:06.939Z,33.16
2023-07-12T09:33:33.448Z,32.80
2023-07-12T09:35:59.855Z,32.40
2023-07-12T09:38:26.242Z,32.15
2023-07-12T09:40:52.632Z,31.73
2023-07-12T09:43:19.038Z,31.81
2023-07-12T09:45:59.680Z,31.32
2023-07-12T09:48:31.782Z,31.42
2023-07-12T09:50:58.128Z,31.49
2023-07-12T09:53:24.520Z,32.10
2023-07-12T09:55:50.893Z,32.04
2023-07-12T09:58:17.344Z,31.10
2023-07-12T10:00:43.846Z,31.55
2023-07-12T10:03:10.266Z,31.30
2023-07-12T10:05:36.730Z,30.57
2023-07-12T10:08:03.127Z,30.82
2023-07-12T10:10:29.518Z,30.10
2023-07-12T10:12:55.918Z,30.34
2023-07-12T10:15:22.332Z,30.06
2023-07-12T10:17:48.747Z,30.13
2023-07-12T10:20:15.189Z,30.84
2023-07-12T10:22:41.603Z,31.25
2023-07-12T10:25:08.013Z,30.78
2023-07-12T10:27:34.411Z,30.63
2023-07-12T10:30:00.815Z,30.49
2023-07-12T10:32:27.196Z,30.61
2023-07-12T10:34:53.590Z,31.33
2023-07-12T10:37:19.964Z,30.96
2023-07-12T10:39:46.335Z,30.04
2023-07-12T10:42:12.746Z,30.93
2023-07-12T10:44:39.093Z,29.72
2023-07-12T10:47:05.543Z,29.52
2023-07-12T10:49:32.234Z,29.65
2023-07-12T10:51:58.609Z,29.80
2023-07-12T10:54:25.009Z,29.97
2023-07-12T10:56:51.367Z,31.05
2023-07-12T10:59:17.721Z,30.67
2023-07-12T11:01:44.074Z,30.79
2023-07-12T11:04:10.432Z,30.52
2023-07-12T11:06:36.837Z,30.65
2023-07-12T11:09:03.257Z,30.45
2023-07-12T11:11:29.614Z,29.78
2023-07-12T11:13:55.980Z,29.77
2023-07-12T11:16:22.410Z,31.48
2023-07-12T11:18:48.865Z,30.30
2023-07-12T11:21:15.311Z,30.20
2023-07-12T11:23:41.714Z,29.93
2023-07-12T11:26:08.088Z,30.32
2023-07-12T11:28:34.491Z,31.03
2023-07-12T11:31:00.927Z,29.86
2023-07-12T11:33:27.351Z,28.97
2023-07-12T11:35:53.716Z,29.11
2023-07-12T11:38:20.132Z,29.08
2023-07-12T11:40:46.548Z,29.68
2023-07-12T11:43:13.143Z,28.67
2023-07-12T11:45:39.567Z,29.34
2023-07-12T11:48:06.289Z,29.17
2023-07-12T11:50:32.738Z,29.55
2023-07-12T11:52:59.168Z,29.58
2023-07-12T11:55:25.612Z,29.34
2023-07-12T11:57:52.036Z,28.84
2023-07-12T12:00:18.495Z,28.28
2023-07-12T12:02:44.928Z,28.67
2023-07-12T12:05:11.425Z,27.98
2023-07-12T12:07:37.922Z,28.83
2023-07-12T12:10:06.275Z,29.41
2023-07-12T12:12:32.960Z,28.66
2023-07-12T12:14:59.747Z,28.66
2023-07-12T12:17:26.238Z,28.98
2023-07-12T12:19:52.873Z,30.49
2023-07-12T12:22:19.777Z,29.89
2023-07-12T12:24:46.377Z,29.41
2023-07-12T12:27:19.802Z,29.49
2023-07-12T12:29:47.459Z,29.21
2023-07-12T12:32:13.903Z,27.79
2023-07-12T12:34:40.378Z,29.04
2023-07-12T12:37:06.775Z,28.97
2023-07-12T12:39:33.148Z,28.20
2023-07-12T12:41:59.569Z,28.78
2023-07-12T12:44:25.966Z,28.61
2023-07-12T12:47:04.839Z,28.97
2023-07-12T12:54:39.766Z,28.62
2023-07-12T13:07:05.583Z,27.67
2023-07-12T13:19:32.480Z,28.66
2023-07-12T13:21:59.147Z,28.98
2023-07-12T13:24:25.672Z,28.65
2023-07-12T13:26:52.080Z,28.97
2023-07-12T13:29:18.493Z,28.40
2023-07-12T13:31:44.943Z,27.85
2023-07-12T13:34:11.814Z,28.41
2023-07-12T13:36:40.152Z,28.44
2023-07-12T13:46:34.472Z,29.89
2023-07-12T13:49:00.836Z,28.94
2023-07-12T13:51:27.187Z,28.78
2023-07-12T13:53:53.591Z,29.44
2023-07-12T13:59:15.951Z,29.09
2023-07-12T14:04:05.023Z,29.90
2023-07-12T14:06:54.582Z,29.86
2023-07-12T14:09:17.889Z,29.94
2023-07-12T14:11:44.343Z,29.46
2023-07-12T14:14:10.742Z,29.77
2023-07-12T14:16:37.109Z,29.44
2023-07-12T14:19:03.497Z,29.06
2023-07-12T14:21:29.847Z,29.42
2023-07-12T14:23:56.265Z,29.33
2023-07-12T14:26:22.676Z,29.15
2023-07-12T14:28:55.464Z,29.73
2023-07-12T14:31:22.599Z,29.40
2023-07-12T14:33:49.063Z,29.55
2023-07-12T14:36:15.458Z,29.96
2023-07-12T14:38:43.914Z,29.64
2023-07-12T14:41:10.979Z,29.85
2023-07-12T14:43:37.325Z,29.14
2023-07-12T14:46:03.731Z,29.20
2023-07-12T14:48:30.149Z,29.55
2023-07-12T14:50:56.506Z,29.54
2023-07-12T14:53:22.902Z,30.14
2023-07-12T14:55:49.273Z,30.05
2023-07-12T14:58:20.593Z,30.01
2023-07-12T15:00:47.941Z,29.77
2023-07-12T15:03:14.608Z,29.25
2023-07-12T15:05:41.100Z,29.71
2023-07-12T15:08:07.504Z,30.14
2023-07-12T15:10:33.865Z,31.53
2023-07-12T15:13:00.411Z,29.34
2023-07-12T15:15:26.879Z,29.92
2023-07-12T15:17:53.404Z,31.34
2023-07-12T15:20:19.936Z,29.96
2023-07-12T15:22:46.785Z,29.70
2023-07-12T15:25:13.227Z,29.97
2023-07-12T15:27:39.603Z,29.80
2023-07-12T15:30:05.974Z,30.42
2023-07-12T15:32:32.362Z,29.41
2023-07-12T15:34:58.777Z,29.17
2023-07-12T15:37:25.179Z,30.19
2023-07-12T15:39:51.601Z,30.39
2023-07-12T15:42:18.014Z,30.50
2023-07-12T15:44:44.409Z,30.34
2023-07-12T15:47:10.804Z,29.55
2023-07-12T15:49:37.363Z,29.70
2023-07-12T15:52:03.750Z,29.75
2023-07-12T15:54:30.099Z,29.87
2023-07-12T15:56:56.492Z,30.00
2023-07-12T15:59:22.887Z,30.22
2023-07-12T16:01:49.304Z,29.57
2023-07-12T16:04:15.724Z,30.32
2023-07-12T16:06:42.140Z,29.37
2023-07-12T16:09:09.885Z,28.67
2023-07-12T16:11:37.133Z,29.52
2023-07-12T16:14:03.493Z,29.71
2023-07-12T16:16:29.875Z,29.71
2023-07-12T16:18:56.345Z,29.26
2023-07-12T16:21:22.751Z,28.66
2023-07-12T16:23:49.184Z,28.01
2023-07-12T16:26:15.555Z,28.15
2023-07-12T16:28:41.922Z,29.48
2023-07-12T16:31:08.394Z,29.67
2023-07-12T16:33:34.774Z,29.71
2023-07-12T16:36:01.201Z,29.06
2023-07-12T16:38:27.580Z,29.00
2023-07-12T16:40:54.005Z,27.86
2023-07-12T16:43:20.414Z,27.88
2023-07-12T16:45:46.788Z,27.85
2023-07-12T16:48:13.184Z,28.67
2023-07-12T16:50:39.593Z,28.34
2023-07-12T16:53:06.031Z,29.56
2023-07-12T16:55:32.479Z,30.21
2023-07-12T16:57:58.836Z,29.19
2023-07-12T17:00:25.238Z,29.89
2023-07-12T17:02:51.764Z,28.90
2023-07-12T17:05:18.264Z,29.13
2023-07-12T17:07:44.691Z,28.46
2023-07-12T17:10:11.039Z,27.22
2023-07-12T17:12:37.442Z,28.83
2023-07-12T17:15:03.900Z,27.50
2023-07-12T17:17:30.352Z,28.30
2023-07-12T17:19:56.831Z,28.32
2023-07-12T17:22:23.311Z,28.75
2023-07-12T17:24:50.817Z,28.66
2023-07-12T17:27:17.238Z,28.44
2023-07-12T17:29:43.600Z,29.02
2023-07-12T17:32:09.998Z,27.43
2023-07-12T17:34:36.445Z,27.84
2023-07-12T17:37:02.822Z,28.24
2023-07-12T17:39:29.219Z,28.55
2023-07-12T17:41:55.660Z,28.74
2023-07-12T17:44:22.015Z,28.81
2023-07-12T17:46:48.416Z,28.75
2023-07-12T17:49:14.826Z,27.80
2023-07-12T17:51:41.242Z,28.20
2023-07-12T17:54:07.622Z,28.70
2023-07-12T17:56:34.014Z,27.84
2023-07-12T17:59:00.386Z,28.82
2023-07-12T18:01:26.827Z,28.37
2023-07-12T18:03:53.356Z,28.54
2023-07-12T18:06:19.832Z,28.82
2023-07-12T18:08:46.220Z,28.56
2023-07-12T18:11:12.587Z,28.28
2023-07-12T18:13:38.985Z,28.96
2023-07-12T18:16:05.428Z,29.01
2023-07-12T18:18:31.828Z,28.92
2023-07-12T18:20:58.199Z,28.73
2023-07-12T18:23:24.589Z,28.65
2023-07-12T18:25:51.032Z,28.91
2023-07-12T18:28:17.438Z,28.63
2023-07-12T18:30:43.837Z,28.59
2023-07-12T18:33:10.214Z,29.01
2023-07-12T18:35:36.625Z,28.59
2023-07-12T18:38:03.011Z,27.74
2023-07-12T18:40:29.419Z,27.27
2023-07-12T18:42:55.871Z,27.24
2023-07-12T18:45:22.288Z,26.91
2023-07-12T18:47:48.708Z,26.76
2023-07-12T18:50:15.278Z,26.52
2023-07-12T18:52:41.692Z,27.55
2023-07-12T18:55:08.136Z,27.49
2023-07-12T18:57:34.491Z,27.58
2023-07-12T19:00:00.886Z,27.50
2023-07-12T19:02:27.304Z,28.26
2023-07-12T19:04:53.755Z,28.46
2023-07-12T19:07:20.189Z,28.36
2023-07-12T19:09:46.572Z,28.60
2023-07-12T19:12:12.978Z,28.28
2023-07-12T19:14:39.404Z,28.72
2023-07-12T19:17:05.879Z,28.71
2023-07-12T19:19:32.309Z,29.26
2023-07-12T19:21:58.686Z,29.24
2023-07-12T19:24:25.144Z,29.47
2023-07-12T19:26:53.083Z,30.00
2023-07-12T19:29:21.417Z,29.78
2023-07-12T19:31:47.990Z,30.26
2023-07-12T19:34:14.465Z,30.24
2023-07-12T19:36:40.870Z,30.24
2023-07-12T19:39:07.269Z,30.73
2023-07-12T19:41:33.649Z,30.61
2023-07-12T19:44:00.056Z,30.57
2023-07-12T19:46:26.530Z,30.73
2023-07-12T19:48:52.935Z,30.79
2023-07-12T19:51:19.364Z,30.89
2023-07-12T19:53:45.738Z,30.82
2023-07-12T19:56:12.469Z,30.96
2023-07-12T19:58:39.032Z,31.16
2023-07-12T20:01:05.423Z,31.31
2023-07-12T20:03:31.917Z,30.98
2023-07-12T20:05:58.535Z,31.23
2023-07-12T20:08:26.494Z,31.18
2023-07-12T20:10:52.865Z,31.27
2023-07-12T20:13:19.261Z,31.23
2023-07-12T20:15:45.694Z,31.16
2023-07-12T20:18:12.182Z,31.23
2023-07-12T20:20:42.285Z,31.19
2023-07-12T20:23:09.234Z,31.45
2023-07-12T20:25:35.638Z,31.34
2023-07-12T20:28:02.330Z,31.09
2023-07-12T20:30:29.505Z,31.46
2023-07-12T20:32:55.936Z,31.40
2023-07-12T20:35:22.408Z,31.58
2023-07-12T20:37:48.802Z,31.43
2023-07-12T20:40:15.209Z,31.61
2023-07-12T20:42:41.586Z,31.54
2023-07-12T20:45:10.934Z,31.42
2023-07-12T20:47:38.383Z,31.69
2023-07-12T20:50:04.771Z,31.60
2023-07-12T20:52:31.167Z,31.60
2023-07-12T20:54:57.532Z,31.79
2023-07-12T20:57:23.912Z,31.83
2023-07-12T20:59:50.290Z,31.94
2023-07-12T21:02:16.691Z,31.92
2023-07-12T21:04:43.115Z,32.32
2023-07-12T21:07:09.522Z,32.05
2023-07-12T21:09:35.924Z,32.28
2023-07-12T21:12:02.341Z,32.34
2023-07-12T21:14:28.738Z,31.89
2023-07-12T21:16:55.156Z,31.96
2023-07-12T21:19:21.568Z,32.01
2023-07-12T21:21:47.966Z,32.04
2023-07-12T21:24:14.373Z,31.98
2023-07-12T21:26:40.828Z,31.82
2023-07-12T21:29:07.251Z,32.08
2023-07-12T21:31:33.773Z,32.16
2023-07-12T21:34:00.271Z,31.81
2023-07-12T21:36:26.690Z,32.06
2023-07-12T21:38:53.142Z,31.92
2023-07-12T21:41:19.567Z,32.08
2023-07-12T21:43:46.000Z,32.04
2023-07-12T21:46:12.578Z,31.84
2023-07-12T21:48:39.304Z,31.96
2023-07-12T21:51:05.738Z,32.22
2023-07-12T21:53:32.211Z,32.04
2023-07-12T21:55:58.605Z,32.54
2023-07-12T21:58:25.153Z,32.41
2023-07-12T22:00:51.677Z,32.32
2023-07-12T22:03:18.144Z,32.57
2023-07-12T22:05:44.567Z,32.03
2023-07-12T22:08:11.080Z,32.39
2023-07-12T22:10:37.487Z,32.08
2023-07-12T22:13:03.993Z,32.36
2023-07-12T22:15:30.421Z,32.19
2023-07-12T22:17:56.898Z,32.09
2023-07-12T22:20:23.282Z,32.21
2023-07-12T22:22:49.775Z,31.84
2023-07-12T22:25:16.174Z,32.34
2023-07-12T22:27:42.571Z,32.30
2023-07-12T22:30:08.977Z,32.12
2023-07-12T22:32:35.420Z,31.76
2023-07-12T22:35:01.882Z,31.98
2023-07-12T22:37:28.270Z,32.12
2023-07-12T22:39:54.676Z,32.11
2023-07-12T22:42:21.056Z,32.22
2023-07-12T22:44:47.652Z,32.26
2023-07-12T22:47:14.073Z,32.20
2023-07-12T22:49:40.627Z,32.26
2023-07-12T22:52:07.012Z,32.16
2023-07-12T22:54:33.588Z,32.30
2023-07-12T22:57:00.075Z,32.44
2023-07-12T22:59:26.509Z,32.51
2023-07-12T23:01:52.933Z,32.24
2023-07-12T23:04:19.341Z,32.14
2023-07-12T23:06:45.723Z,32.23
2023-07-12T23:09:12.111Z,32.32
2023-07-12T23:11:38.498Z,32.42
2023-07-12T23:14:04.940Z,32.08
2023-07-12T23:16:31.377Z,31.99
2023-07-12T23:18:57.823Z,32.42
2023-07-12T23:21:24.201Z,32.73
2023-07-12T23:23:50.630Z,32.21
2023-07-12T23:26:17.002Z,32.27
2023-07-12T23:28:43.389Z,32.24
2023-07-12T23:31:09.827Z,32.45
2023-07-12T23:33:36.260Z,32.76
2023-07-12T23:36:02.658Z,32.41
2023-07-12T23:38:29.059Z,32.49
2023-07-12T23:40:55.477Z,32.39
2023-07-12T23:43:21.922Z,32.66
2023-07-12T23:45:48.348Z,32.56
2023-07-12T23:48:14.744Z,32.52
2023-07-12T23:50:41.129Z,32.64
2023-07-12T23:53:07.529Z,32.79
2023-07-12T23:55:33.927Z,32.67
2023-07-12T23:58:00.280Z,32.88
